createdAt,value
2022-10-03T00:01:31.916Z,10.56
2022-10-03T00:04:10.764Z,10.87
2022-10-03T00:06:47.157Z,10.88
2022-10-03T00:09:25.018Z,10.52
2022-10-03T00:12:09.492Z,10.33
2022-10-03T00:14:45.739Z,10.52
2022-10-03T00:17:17.316Z,10.59
2022-10-03T00:19:49.403Z,10.70
2022-10-03T00:22:27.093Z,10.78
2022-10-03T00:25:03.761Z,10.76
2022-10-03T00:27:35.426Z,10.49
2022-10-03T00:30:13.300Z,10.53
2022-10-03T00:32:54.468Z,10.40
2022-10-03T00:35:32.332Z,10.22
2022-10-03T00:38:11.505Z,10.33
2022-10-03T00:41:09.154Z,10.40
2022-10-03T00:44:16.651Z,10.26
2022-10-03T00:47:03.343Z,10.07
2022-10-03T00:50:07.351Z,9.85
2022-10-03T00:52:45.756Z,9.62
2022-10-03T00:55:20.618Z,9.40
2022-10-03T00:58:01.640Z,9.23
2022-10-03T01:00:32.080Z,9.37
2022-10-03T01:03:12.327Z,9.46
2022-10-03T01:05:53.609Z,9.76
2022-10-03T01:08:33.079Z,9.87
2022-10-03T01:11:06.633Z,9.71
2022-10-03T01:13:42.991Z,9.85
2022-10-03T01:16:19.171Z,9.95
2022-10-03T01:18:57.369Z,10.06
2022-10-03T01:21:33.369Z,10.00
2022-10-03T01:24:27.732Z,9.79
2022-10-03T01:26:58.321Z,9.48
2022-10-03T01:29:58.337Z,9.37
2022-10-03T01:32:31.704Z,9.49
2022-10-03T01:35:09.206Z,9.64
2022-10-03T01:37:43.335Z,9.60
2022-10-03T01:40:21.069Z,9.61
2022-10-03T01:43:02.075Z,9.64
2022-10-03T01:45:40.104Z,9.31
2022-10-03T01:48:09.509Z,9.26
2022-10-03T01:50:39.425Z,9.23
2022-10-03T01:53:13.439Z,9.07
2022-10-03T01:55:49.705Z,9.09
2022-10-03T01:58:26.955Z,9.19
2022-10-03T02:01:00.563Z,9.16
2022-10-03T02:03:30.417Z,9.14
2022-10-03T02:06:02.593Z,9.12
2022-10-03T02:08:39.460Z,9.08
2022-10-03T02:11:09.097Z,9.13
2022-10-03T02:13:44.027Z,9.10
2022-10-03T02:16:18.187Z,9.12
2022-10-03T02:18:50.517Z,9.07
2022-10-03T02:21:20.852Z,9.40
2022-10-03T02:23:49.804Z,9.22
2022-10-03T02:26:50.095Z,9.27
2022-10-03T02:29:34.576Z,9.12
2022-10-03T02:32:35.157Z,9.33
2022-10-03T02:35:35.898Z,9.37
2022-10-03T02:38:29.386Z,9.07
2022-10-03T02:41:26.182Z,9.04
2022-10-03T02:44:22.820Z,8.77
2022-10-03T02:47:22.077Z,8.91
2022-10-03T02:50:19.091Z,8.88
2022-10-03T02:53:20.225Z,8.97
2022-10-03T02:56:11.340Z,9.09
2022-10-03T02:59:02.820Z,9.10
2022-10-03T03:01:51.060Z,9.11
2022-10-03T03:04:42.999Z,8.95
2022-10-03T03:07:27.775Z,9.11
2022-10-03T03:10:28.198Z,8.94
2022-10-03T03:13:22.309Z,8.69
2022-10-03T03:16:29.089Z,8.85
2022-10-03T03:19:13.263Z,8.67
2022-10-03T03:21:46.151Z,8.84
2022-10-03T03:24:25.240Z,9.09
2022-10-03T03:27:01.040Z,9.06
2022-10-03T03:29:38.196Z,8.84
2022-10-03T03:32:12.194Z,8.63
2022-10-03T03:34:44.503Z,8.58
2022-10-03T03:37:21.687Z,8.36
2022-10-03T03:40:00.775Z,8.17
2022-10-03T03:43:01.193Z,8.23
2022-10-03T03:45:38.753Z,8.20
2022-10-03T03:48:49.070Z,8.16
2022-10-03T03:51:23.697Z,8.15
2022-10-03T03:54:06.235Z,8.35
2022-10-03T03:57:23.993Z,8.46
2022-10-03T04:00:13.260Z,8.52
2022-10-03T04:02:51.002Z,8.52
2022-10-03T04:05:29.019Z,8.62
2022-10-03T04:08:12.176Z,8.57
2022-10-03T04:10:48.714Z,8.70
2022-10-03T04:13:29.703Z,8.46
2022-10-03T04:16:15.318Z,8.53
2022-10-03T04:18:58.554Z,8.41
2022-10-03T04:21:40.832Z,8.49
2022-10-03T04:24:29.232Z,8.29
2022-10-03T04:27:06.174Z,8.20
2022-10-03T04:29:47.981Z,8.25
2022-10-03T04:32:26.621Z,8.20
2022-10-03T04:35:09.819Z,8.29
2022-10-03T04:37:42.743Z,8.04
2022-10-03T04:40:25.191Z,8.06
2022-10-03T04:43:01.168Z,8.04
2022-10-03T04:45:57.863Z,8.10
2022-10-03T04:48:30.521Z,8.04
2022-10-03T04:51:06.156Z,7.96
2022-10-03T04:53:46.047Z,7.90
2022-10-03T04:56:25.261Z,7.99
2022-10-03T04:59:04.771Z,8.01
2022-10-03T05:01:35.068Z,8.12
2022-10-03T05:04:10.498Z,8.11
2022-10-03T05:06:47.991Z,8.17
2022-10-03T05:09:23.660Z,8.23
2022-10-03T05:11:59.512Z,8.14
2022-10-03T05:14:39.726Z,8.17
2022-10-03T05:17:16.652Z,8.19
2022-10-03T05:20:05.085Z,8.26
2022-10-03T05:22:40.272Z,8.29
2022-10-03T05:25:19.235Z,8.29
2022-10-03T05:27:53.092Z,8.42
2022-10-03T05:30:35.242Z,8.54
2022-10-03T05:33:08.936Z,8.67
2022-10-03T05:35:48.120Z,8.68
2022-10-03T05:38:27.947Z,8.63
2022-10-03T05:41:04.439Z,8.62
2022-10-03T05:43:47.795Z,8.75
2022-10-03T05:46:23.843Z,8.77
2022-10-03T05:48:54.030Z,8.76
2022-10-03T05:51:46.451Z,8.81
2022-10-03T05:54:49.544Z,8.90
2022-10-03T05:57:44.884Z,8.96
2022-10-03T06:00:21.541Z,9.03
2022-10-03T06:03:17.468Z,9.16
2022-10-03T06:05:57.586Z,9.25
2022-10-03T06:08:56.483Z,9.38
2022-10-03T06:11:53.939Z,9.37
2022-10-03T06:14:45.734Z,9.41
2022-10-03T06:17:53.610Z,9.46
2022-10-03T06:21:14.982Z,9.46
2022-10-03T06:24:14.440Z,9.49
2022-10-03T06:27:35.605Z,9.53
2022-10-03T06:30:21.935Z,9.60
2022-10-03T06:33:29.247Z,9.69
2022-10-03T06:36:27.373Z,9.82
2022-10-03T06:39:31.129Z,9.85
2022-10-03T06:42:25.027Z,9.97
2022-10-03T06:45:20.650Z,10.03
2022-10-03T06:48:06.582Z,10.12
2022-10-03T06:50:46.992Z,10.28
2022-10-03T06:53:26.258Z,10.42
2022-10-03T06:56:10.846Z,10.55
2022-10-03T06:58:52.147Z,10.67
2022-10-03T07:01:37.641Z,10.69
2022-10-03T07:04:14.229Z,10.80
2022-10-03T07:07:11.011Z,10.99
2022-10-03T07:10:03.191Z,10.96
2022-10-03T07:13:08.157Z,11.03
2022-10-03T07:16:25.056Z,11.08
2022-10-03T07:19:17.750Z,11.21
2022-10-03T07:22:10.409Z,11.39
2022-10-03T07:25:20.924Z,11.50
2022-10-03T07:28:02.601Z,11.49
2022-10-03T07:30:37.267Z,11.54
2022-10-03T07:33:49.552Z,11.59
2022-10-03T07:36:49.769Z,11.67
2022-10-03T07:39:43.495Z,11.72
2022-10-03T07:42:26.057Z,11.84
2022-10-03T07:45:33.791Z,11.95
2022-10-03T07:48:13.334Z,12.01
2022-10-03T07:50:56.151Z,12.03
2022-10-03T07:53:59.578Z,12.10
2022-10-03T07:56:43.501Z,12.16
2022-10-03T07:59:29.273Z,12.20
2022-10-03T08:02:09.219Z,12.24
2022-10-03T08:04:55.168Z,12.26
2022-10-03T08:07:37.730Z,12.28
2022-10-03T08:10:17.002Z,12.25
2022-10-03T08:13:06.954Z,12.34
2022-10-03T08:15:45.367Z,12.34
2022-10-03T08:18:48.924Z,12.34
2022-10-03T08:21:20.729Z,12.31
2022-10-03T08:24:17.838Z,12.33
2022-10-03T08:26:58.206Z,12.52
2022-10-03T08:29:52.811Z,12.49
2022-10-03T08:32:58.101Z,12.69
2022-10-03T08:35:39.087Z,12.79
2022-10-03T08:38:19.130Z,12.79
2022-10-03T08:41:08.630Z,12.80
2022-10-03T08:44:17.697Z,12.79
2022-10-03T08:47:28.070Z,12.78
2022-10-03T08:50:37.373Z,12.84
2022-10-03T08:53:28.246Z,13.03
2022-10-03T08:55:58.588Z,13.08
2022-10-03T08:58:57.294Z,13.24
2022-10-03T09:01:39.046Z,13.18
2022-10-03T09:04:40.737Z,13.27
2022-10-03T09:07:22.054Z,13.33
2022-10-03T09:10:35.253Z,13.48
2022-10-03T09:13:23.387Z,13.46
2022-10-03T09:16:25.016Z,13.58
2022-10-03T09:19:01.782Z,13.72
2022-10-03T09:22:13.788Z,13.88
2022-10-03T09:25:05.156Z,14.01
2022-10-03T09:27:44.504Z,14.11
2022-10-03T09:30:23.000Z,14.11
2022-10-03T09:33:18.218Z,14.09
2022-10-03T09:35:59.569Z,14.14
2022-10-03T09:39:01.931Z,14.11
2022-10-03T09:41:52.225Z,14.05
2022-10-03T09:44:40.789Z,14.16
2022-10-03T09:47:39.626Z,14.17
2022-10-03T09:50:46.976Z,14.22
2022-10-03T09:53:34.176Z,14.23
2022-10-03T09:56:29.976Z,14.18
2022-10-03T09:59:13.849Z,14.31
2022-10-03T10:01:46.740Z,14.40
2022-10-03T10:04:54.203Z,14.56
2022-10-03T10:07:53.475Z,14.63
2022-10-03T10:10:55.295Z,14.77
2022-10-03T10:14:03.274Z,14.82
2022-10-03T10:17:10.517Z,14.94
2022-10-03T10:19:48.321Z,15.23
2022-10-03T10:22:46.937Z,15.30
2022-10-03T10:25:26.713Z,15.38
2022-10-03T10:28:32.908Z,15.39
2022-10-03T10:31:34.420Z,15.41
2022-10-03T10:34:51.536Z,15.42
2022-10-03T10:37:54.945Z,15.55
2022-10-03T10:41:11.395Z,15.64
2022-10-03T10:44:08.681Z,15.64
2022-10-03T10:47:13.745Z,15.68
2022-10-03T10:50:26.851Z,15.60
2022-10-03T10:53:33.000Z,15.71
2022-10-03T10:56:32.856Z,15.85
2022-10-03T10:59:38.510Z,15.80
2022-10-03T11:02:50.457Z,15.57
2022-10-03T11:05:51.701Z,15.75
2022-10-03T11:08:50.970Z,15.76
2022-10-03T11:12:15.989Z,15.88
2022-10-03T11:15:19.530Z,15.88
2022-10-03T11:18:22.753Z,16.06
2022-10-03T11:21:31.647Z,16.22
2022-10-03T11:24:23.442Z,16.39
2022-10-03T11:27:20.431Z,16.34
2022-10-03T11:30:28.464Z,16.34
2022-10-03T11:33:32.057Z,16.36
2022-10-03T11:36:31.942Z,16.31
2022-10-03T11:39:05.243Z,16.20
2022-10-03T11:41:41.887Z,16.34
2022-10-03T11:44:22.273Z,16.32
2022-10-03T11:47:17.027Z,16.36
2022-10-03T11:50:12.641Z,16.20
2022-10-03T11:52:44.429Z,16.22
2022-10-03T11:55:25.557Z,16.02
2022-10-03T11:58:05.066Z,16.06
2022-10-03T12:00:35.722Z,16.20
2022-10-03T12:03:21.846Z,16.33
2022-10-03T12:06:18.630Z,16.35
2022-10-03T12:08:57.624Z,16.37
2022-10-03T12:11:28.249Z,16.21
2022-10-03T12:14:12.775Z,16.17
2022-10-03T12:16:53.362Z,16.42
2022-10-03T12:19:32.165Z,16.65
2022-10-03T12:22:05.613Z,16.78
2022-10-03T12:24:35.272Z,16.68
2022-10-03T12:27:08.093Z,16.58
2022-10-03T12:29:39.289Z,16.66
2022-10-03T12:32:17.827Z,16.47
2022-10-03T12:34:51.105Z,16.64
2022-10-03T12:37:29.524Z,16.93
2022-10-03T12:40:05.810Z,17.17
2022-10-03T12:42:36.140Z,17.09
2022-10-03T12:45:07.574Z,17.07
2022-10-03T12:47:55.654Z,17.15
2022-10-03T12:50:36.541Z,17.16
2022-10-03T12:53:21.231Z,17.11
2022-10-03T12:55:56.878Z,16.85
2022-10-03T12:58:29.376Z,16.70
2022-10-03T13:01:01.118Z,16.54
2022-10-03T13:03:38.482Z,16.77
2022-10-03T13:07:03.002Z,16.70
2022-10-03T13:09:46.324Z,16.87
2022-10-03T13:12:22.048Z,17.05
2022-10-03T13:15:44.274Z,16.67
2022-10-03T13:18:43.102Z,16.97
2022-10-03T13:21:40.584Z,17.11
2022-10-03T13:24:04.525Z,16.94
2022-10-03T13:26:45.748Z,16.62
2022-10-03T13:29:20.644Z,16.38
2022-10-03T13:32:16.151Z,16.41
2022-10-03T13:35:27.286Z,16.36
2022-10-03T13:38:24.349Z,16.47
2022-10-03T13:41:00.011Z,16.52
2022-10-03T13:43:37.519Z,16.73
2022-10-03T13:46:08.520Z,16.65
2022-10-03T13:48:37.369Z,16.61
2022-10-03T13:51:08.403Z,16.37
2022-10-03T13:53:47.490Z,16.30
2022-10-03T13:56:21.213Z,16.17
2022-10-03T13:58:56.729Z,15.90
2022-10-03T14:01:42.005Z,15.82
2022-10-03T14:04:27.141Z,15.85
2022-10-03T14:06:58.151Z,15.92
2022-10-03T14:09:36.289Z,15.83
2022-10-03T14:12:12.990Z,15.65
2022-10-03T14:14:51.278Z,15.61
2022-10-03T14:17:24.516Z,15.57
2022-10-03T14:20:05.716Z,15.69
2022-10-03T14:22:43.189Z,15.78
2022-10-03T14:25:20.279Z,15.83
2022-10-03T14:27:59.486Z,15.93
2022-10-03T14:30:32.981Z,15.93
2022-10-03T14:33:20.948Z,16.04
2022-10-03T14:35:56.165Z,15.96
2022-10-03T14:39:01.984Z,15.92
2022-10-03T14:41:40.000Z,16.04
2022-10-03T14:44:13.561Z,16.04
2022-10-03T14:46:44.101Z,15.90
2022-10-03T14:49:47.049Z,16.02
2022-10-03T14:52:09.416Z,15.87
2022-10-03T14:54:39.256Z,15.85
2022-10-03T14:57:23.647Z,15.72
2022-10-03T14:59:57.834Z,15.78
2022-10-03T15:02:30.681Z,15.76
2022-10-03T15:05:04.876Z,15.83
2022-10-03T15:07:37.330Z,15.86
2022-10-03T15:10:08.543Z,15.71
2022-10-03T15:12:38.120Z,15.77
2022-10-03T15:15:11.167Z,15.77
2022-10-03T15:17:45.843Z,15.83
2022-10-03T15:20:14.837Z,15.87
2022-10-03T15:22:48.453Z,15.84
2022-10-03T15:25:18.687Z,15.88
2022-10-03T15:27:47.887Z,15.65
2022-10-03T15:30:25.784Z,15.57
2022-10-03T15:32:59.300Z,15.57
2022-10-03T15:35:29.557Z,15.60
2022-10-03T15:38:06.035Z,15.65
2022-10-03T15:40:35.072Z,15.48
2022-10-03T15:43:07.921Z,15.52
2022-10-03T15:45:38.344Z,15.57
2022-10-03T15:48:07.365Z,15.53
2022-10-03T15:50:39.379Z,15.45
2022-10-03T15:53:34.379Z,15.33
2022-10-03T15:56:05.762Z,15.32
2022-10-03T15:58:34.586Z,15.32
2022-10-03T16:01:08.470Z,15.26
2022-10-03T16:03:43.097Z,15.21
2022-10-03T16:06:13.746Z,15.16
2022-10-03T16:08:52.198Z,15.08
2022-10-03T16:11:23.069Z,15.08
2022-10-03T16:13:58.720Z,15.01
2022-10-03T16:16:34.325Z,14.97
2022-10-03T16:19:20.010Z,14.97
2022-10-03T16:21:48.744Z,14.91
2022-10-03T16:24:22.059Z,14.87
2022-10-03T16:26:53.202Z,14.86
2022-10-03T16:29:23.713Z,14.83
2022-10-03T16:31:55.862Z,14.76
2022-10-03T16:34:26.181Z,14.70
2022-10-03T16:36:55.286Z,14.61
2022-10-03T16:39:26.352Z,14.54
2022-10-03T16:41:55.340Z,14.37
2022-10-03T16:44:28.447Z,14.36
2022-10-03T16:46:59.662Z,14.29
2022-10-03T16:49:54.830Z,14.21
2022-10-03T16:52:24.917Z,14.07
2022-10-03T16:55:00.545Z,13.96
2022-10-03T16:57:33.595Z,14.07
2022-10-03T17:00:05.905Z,13.87
2022-10-03T17:02:37.534Z,13.80
2022-10-03T17:05:08.173Z,13.73
2022-10-03T17:07:40.775Z,13.62
2022-10-03T17:10:25.192Z,13.49
2022-10-03T17:12:53.279Z,13.46
2022-10-03T17:15:22.304Z,13.29
2022-10-03T17:17:55.277Z,13.05
2022-10-03T17:20:34.652Z,13.03
2022-10-03T17:23:03.710Z,13.06
2022-10-03T17:25:39.674Z,13.06
2022-10-03T17:28:11.597Z,12.91
2022-10-03T17:30:46.867Z,12.57
2022-10-03T17:33:19.841Z,12.41
2022-10-03T17:35:50.851Z,12.18
2022-10-03T17:38:49.024Z,12.18
2022-10-03T17:41:21.172Z,12.07
2022-10-03T17:43:57.167Z,12.13
2022-10-03T17:46:32.261Z,12.12
2022-10-03T17:49:06.527Z,12.12
2022-10-03T17:51:37.680Z,12.04
2022-10-03T17:54:12.001Z,12.08
2022-10-03T17:56:44.157Z,12.09
2022-10-03T17:59:16.028Z,12.04
2022-10-03T18:01:45.592Z,12.00
2022-10-03T18:04:18.563Z,11.86
2022-10-03T18:06:47.923Z,11.71
2022-10-03T18:09:40.398Z,11.45
2022-10-03T18:12:16.940Z,11.30
2022-10-03T18:14:55.801Z,11.28
2022-10-03T18:17:32.926Z,11.32
2022-10-03T18:20:20.970Z,11.34
2022-10-03T18:22:49.438Z,11.37
2022-10-03T18:25:33.851Z,11.31
2022-10-03T18:28:12.803Z,11.08
2022-10-03T18:30:46.358Z,10.95
2022-10-03T18:33:15.996Z,11.06
2022-10-03T18:35:47.269Z,11.23
2022-10-03T18:38:18.634Z,11.13
2022-10-03T18:40:50.799Z,11.04
2022-10-03T18:43:31.334Z,10.73
2022-10-03T18:46:04.858Z,10.55
2022-10-03T18:48:36.250Z,10.56
2022-10-03T18:51:13.715Z,10.69
2022-10-03T18:53:46.547Z,10.73
2022-10-03T18:56:20.187Z,10.72
2022-10-03T18:59:11.173Z,10.54
2022-10-03T19:01:46.215Z,10.25
2022-10-03T19:04:16.907Z,10.19
2022-10-03T19:06:48.096Z,10.20
2022-10-03T19:09:19.615Z,10.29
2022-10-03T19:11:50.712Z,10.46
2022-10-03T19:14:23.721Z,10.24
2022-10-03T19:17:07.168Z,10.19
2022-10-03T19:19:44.508Z,10.29
2022-10-03T19:22:17.128Z,10.34
2022-10-03T19:24:58.438Z,10.07
2022-10-03T19:27:41.003Z,9.69
2022-10-03T19:30:09.563Z,9.64
2022-10-03T19:32:48.831Z,9.75
2022-10-03T19:35:21.131Z,9.73
2022-10-03T19:37:51.978Z,9.68
2022-10-03T19:40:42.396Z,9.80
2022-10-03T19:43:32.831Z,9.79
2022-10-03T19:46:10.403Z,9.89
2022-10-03T19:48:43.618Z,9.77
2022-10-03T19:51:19.736Z,9.66
2022-10-03T19:53:52.135Z,9.63
2022-10-03T19:56:22.006Z,9.55
2022-10-03T19:59:00.067Z,9.35
2022-10-03T20:01:27.844Z,9.09
2022-10-03T20:04:01.479Z,9.18
2022-10-03T20:06:33.170Z,9.31
2022-10-03T20:09:04.147Z,9.40
2022-10-03T20:11:40.770Z,9.31
2022-10-03T20:14:10.405Z,9.28
2022-10-03T20:16:43.493Z,9.29
2022-10-03T20:19:15.259Z,9.24
2022-10-03T20:21:45.374Z,9.35
2022-10-03T20:24:20.037Z,9.29
2022-10-03T20:26:54.707Z,9.29
2022-10-03T20:29:27.575Z,9.41
2022-10-03T20:32:00.130Z,9.23
2022-10-03T20:34:28.109Z,9.01
2022-10-03T20:37:02.341Z,8.84
2022-10-03T20:39:34.703Z,8.86
2022-10-03T20:42:06.364Z,8.93
2022-10-03T20:44:47.572Z,8.75
2022-10-03T20:47:27.672Z,8.80
2022-10-03T20:49:57.137Z,8.98
2022-10-03T20:52:25.623Z,8.92
2022-10-03T20:54:59.129Z,8.66
2022-10-03T20:57:29.061Z,8.49
2022-10-03T21:00:00.668Z,8.38
2022-10-03T21:02:30.664Z,8.50
2022-10-03T21:05:01.351Z,8.55
2022-10-03T21:07:41.420Z,8.76
2022-10-03T21:10:24.506Z,8.77
2022-10-03T21:12:54.432Z,8.80
2022-10-03T21:15:29.817Z,8.43
2022-10-03T21:17:58.191Z,8.35
2022-10-03T21:20:33.316Z,8.14
2022-10-03T21:23:03.941Z,8.05
2022-10-03T21:25:34.373Z,8.32
2022-10-03T21:28:03.890Z,8.38
2022-10-03T21:30:52.545Z,8.47
2022-10-03T21:33:21.812Z,8.58
2022-10-03T21:35:51.208Z,8.38
2022-10-03T21:38:22.993Z,8.20
2022-10-03T21:41:04.644Z,7.95
2022-10-03T21:43:44.510Z,7.98
2022-10-03T21:46:16.762Z,7.96
2022-10-03T21:48:54.661Z,8.05
2022-10-03T21:51:27.932Z,8.06
2022-10-03T21:54:04.882Z,7.92
2022-10-03T21:56:52.548Z,7.80
2022-10-03T21:59:30.455Z,7.90
2022-10-03T22:02:01.739Z,8.01
2022-10-03T22:04:35.901Z,7.96
2022-10-03T22:07:08.201Z,8.08
2022-10-03T22:09:35.770Z,8.15
2022-10-03T22:16:24.453Z,7.63
2022-10-03T22:19:03.963Z,7.77
2022-10-03T22:21:37.509Z,7.89
2022-10-03T22:24:09.680Z,7.91
2022-10-03T22:26:43.508Z,7.64
2022-10-03T22:29:20.825Z,7.66
2022-10-03T22:31:56.649Z,7.70
2022-10-03T22:34:31.771Z,7.66
2022-10-03T22:37:00.369Z,7.57
2022-10-03T22:39:29.414Z,7.40
2022-10-03T22:41:59.459Z,7.26
2022-10-03T22:44:29.120Z,7.20
2022-10-03T22:46:59.842Z,7.31
2022-10-03T22:49:29.962Z,7.36
2022-10-03T22:51:58.643Z,7.45
2022-10-03T22:54:32.562Z,7.30
2022-10-03T22:57:01.433Z,7.43
2022-10-03T22:59:31.338Z,7.67
2022-10-03T23:02:03.046Z,7.58
2022-10-03T23:04:34.096Z,7.23
2022-10-03T23:07:35.197Z,7.11
2022-10-03T23:10:15.279Z,7.05
2022-10-03T23:12:45.866Z,6.91
2022-10-03T23:15:15.766Z,6.91
2022-10-03T23:18:01.369Z,7.00
2022-10-03T23:20:45.628Z,7.35
2022-10-03T23:23:16.445Z,7.27
2022-10-03T23:25:52.244Z,6.88
2022-10-03T23:28:25.695Z,6.95
2022-10-03T23:30:54.371Z,7.02
2022-10-03T23:33:49.260Z,6.80
2022-10-03T23:36:19.312Z,6.92
2022-10-03T23:38:58.751Z,7.05
2022-10-03T23:41:57.400Z,7.27
2022-10-03T23:44:31.690Z,7.22
2022-10-03T23:47:01.081Z,6.84
2022-10-03T23:49:29.924Z,6.58
2022-10-03T23:51:57.929Z,6.67
2022-10-03T23:54:26.117Z,6.70
2022-10-03T23:56:59.954Z,7.24
2022-10-03T23:59:28.333Z,7.18
